createdAt,value
2022-10-03T00:02:15.918Z,100.00
2022-10-03T00:05:00.378Z,100.00
2022-10-03T00:07:54.977Z,100.00
2022-10-03T00:10:34.934Z,100.00
2022-10-03T00:13:19.146Z,100.00
2022-10-03T00:15:57.170Z,100.00
2022-10-03T00:18:41.193Z,100.00
2022-10-03T00:21:28.143Z,100.00
2022-10-03T00:24:12.294Z,100.00
2022-10-03T00:26:53.260Z,100.00
2022-10-03T00:29:56.729Z,100.00
2022-10-03T00:32:43.759Z,100.00
2022-10-03T00:35:28.862Z,100.00
2022-10-03T00:38:17.596Z,100.00
2022-10-03T00:41:14.573Z,100.00
2022-10-03T00:44:22.314Z,100.00
2022-10-03T00:47:14.011Z,100.00
2022-10-03T00:50:03.789Z,100.00
2022-10-03T00:52:52.077Z,100.00
2022-10-03T00:55:38.117Z,100.00
2022-10-03T00:58:26.035Z,100.00
2022-10-03T01:01:20.929Z,100.00
2022-10-03T01:04:06.537Z,100.00
2022-10-03T01:06:47.307Z,100.00
2022-10-03T01:09:38.644Z,100.00
2022-10-03T01:12:36.177Z,100.00
2022-10-03T01:15:19.221Z,100.00
2022-10-03T01:18:09.230Z,100.00
2022-10-03T01:20:51.793Z,100.00
2022-10-03T01:23:59.890Z,100.00
2022-10-03T01:26:51.125Z,100.00
2022-10-03T01:29:45.731Z,100.00
2022-10-03T01:32:24.863Z,100.00
2022-10-03T01:35:07.911Z,100.00
2022-10-03T01:37:51.395Z,100.00
2022-10-03T01:40:30.637Z,100.00
2022-10-03T01:43:15.821Z,100.00
2022-10-03T01:46:02.242Z,100.00
2022-10-03T01:48:42.721Z,100.00
2022-10-03T01:51:17.550Z,100.00
2022-10-03T01:54:03.560Z,100.00
2022-10-03T01:56:41.508Z,100.00
2022-10-03T01:59:19.426Z,100.00
2022-10-03T02:01:59.293Z,100.00
2022-10-03T02:04:44.759Z,100.00
2022-10-03T02:07:25.538Z,100.00
2022-10-03T02:10:08.193Z,100.00
2022-10-03T02:12:51.820Z,100.00
2022-10-03T02:15:29.962Z,100.00
2022-10-03T02:18:12.996Z,100.00
2022-10-03T02:20:49.777Z,100.00
2022-10-03T02:23:44.081Z,100.00
2022-10-03T02:26:50.169Z,100.00
2022-10-03T02:29:39.743Z,100.00
2022-10-03T02:32:37.666Z,100.00
2022-10-03T02:35:46.671Z,100.00
2022-10-03T02:38:56.462Z,100.00
2022-10-03T02:41:55.768Z,100.00
2022-10-03T02:44:54.561Z,100.00
2022-10-03T02:48:31.248Z,100.00
2022-10-03T02:51:37.027Z,100.00
2022-10-03T02:54:46.596Z,100.00
2022-10-03T02:58:11.385Z,100.00
2022-10-03T03:01:04.778Z,100.00
2022-10-03T03:03:58.585Z,100.00
2022-10-03T03:06:57.787Z,100.00
2022-10-03T03:09:54.856Z,100.00
2022-10-03T03:12:45.506Z,100.00
2022-10-03T03:15:49.221Z,100.00
2022-10-03T03:18:32.045Z,100.00
2022-10-03T03:21:19.709Z,100.00
2022-10-03T03:24:15.810Z,100.00
2022-10-03T03:27:20.256Z,100.00
2022-10-03T03:30:02.445Z,100.00
2022-10-03T03:32:47.377Z,100.00
2022-10-03T03:35:32.457Z,100.00
2022-10-03T03:38:16.023Z,100.00
2022-10-03T03:41:05.765Z,100.00
2022-10-03T03:44:00.502Z,100.00
2022-10-03T03:46:45.018Z,100.00
2022-10-03T03:49:31.545Z,100.00
2022-10-03T03:52:18.089Z,100.00
2022-10-03T03:55:10.816Z,100.00
2022-10-03T03:58:14.342Z,100.00
2022-10-03T04:01:08.474Z,100.00
2022-10-03T04:03:51.337Z,100.00
2022-10-03T04:06:36.985Z,100.00
2022-10-03T04:09:27.070Z,100.00
2022-10-03T04:12:10.235Z,100.00
2022-10-03T04:15:12.724Z,100.00
2022-10-03T04:18:21.704Z,100.00
2022-10-03T04:21:21.074Z,100.00
2022-10-03T04:24:05.065Z,100.00
2022-10-03T04:26:52.035Z,100.00
2022-10-03T04:29:43.466Z,100.00
2022-10-03T04:32:34.951Z,100.00
2022-10-03T04:35:25.920Z,100.00
2022-10-03T04:38:12.400Z,100.00
2022-10-03T04:40:51.535Z,100.00
2022-10-03T04:43:36.842Z,100.00
2022-10-03T04:46:25.270Z,100.00
2022-10-03T04:49:04.062Z,100.00
2022-10-03T04:51:50.914Z,100.00
2022-10-03T04:54:32.844Z,100.00
2022-10-03T04:57:16.689Z,100.00
2022-10-03T04:59:59.628Z,100.00
2022-10-03T05:02:44.221Z,100.00
2022-10-03T05:05:30.305Z,100.00
2022-10-03T05:08:13.795Z,100.00
2022-10-03T05:10:57.790Z,100.00
2022-10-03T05:13:42.543Z,100.00
2022-10-03T05:16:24.452Z,100.00
2022-10-03T05:19:07.928Z,100.00
2022-10-03T05:21:49.001Z,100.00
2022-10-03T05:24:27.723Z,100.00
2022-10-03T05:27:11.252Z,100.00
2022-10-03T05:29:52.332Z,100.00
2022-10-03T05:32:33.349Z,100.00
2022-10-03T05:35:22.692Z,100.00
2022-10-03T05:38:24.858Z,100.00
2022-10-03T05:41:09.343Z,100.00
2022-10-03T05:43:58.401Z,100.00
2022-10-03T05:46:52.965Z,100.00
2022-10-03T05:49:45.727Z,100.00
2022-10-03T05:52:39.348Z,100.00
2022-10-03T05:55:30.272Z,100.00
2022-10-03T05:58:23.259Z,100.00
2022-10-03T06:01:15.407Z,100.00
2022-10-03T06:04:08.584Z,100.00
2022-10-03T06:06:57.411Z,100.00
2022-10-03T06:09:50.568Z,100.00
2022-10-03T06:12:33.513Z,100.00
2022-10-03T06:15:49.126Z,100.00
2022-10-03T06:19:01.332Z,100.00
2022-10-03T06:22:10.797Z,100.00
2022-10-03T06:25:09.743Z,100.00
2022-10-03T06:28:13.253Z,100.00
2022-10-03T06:31:04.062Z,100.00
2022-10-03T06:34:08.439Z,100.00
2022-10-03T06:37:01.252Z,100.00
2022-10-03T06:40:13.615Z,100.00
2022-10-03T06:43:02.578Z,100.00
2022-10-03T06:46:16.160Z,100.00
2022-10-03T06:49:20.586Z,100.00
2022-10-03T06:52:08.525Z,100.00
2022-10-03T06:55:22.914Z,100.00
2022-10-03T06:58:23.635Z,100.00
2022-10-03T07:01:06.423Z,100.00
2022-10-03T07:04:06.755Z,99.92
2022-10-03T07:06:54.615Z,99.69
2022-10-03T07:10:04.730Z,99.38
2022-10-03T07:12:57.029Z,99.39
2022-10-03T07:16:14.297Z,98.60
2022-10-03T07:19:08.035Z,98.17
2022-10-03T07:22:04.483Z,98.12
2022-10-03T07:25:07.423Z,97.65
2022-10-03T07:27:55.632Z,97.00
2022-10-03T07:30:33.234Z,96.08
2022-10-03T07:33:38.825Z,94.89
2022-10-03T07:37:08.139Z,94.48
2022-10-03T07:40:05.938Z,93.58
2022-10-03T07:43:14.695Z,93.78
2022-10-03T07:46:05.461Z,93.64
2022-10-03T07:49:03.784Z,93.21
2022-10-03T07:51:45.368Z,93.87
2022-10-03T07:54:34.689Z,92.34
2022-10-03T07:57:38.780Z,91.21
2022-10-03T08:00:22.752Z,89.91
2022-10-03T08:03:28.259Z,90.31
2022-10-03T08:06:16.877Z,89.72
2022-10-03T08:09:42.764Z,88.95
2022-10-03T08:13:01.094Z,87.64
2022-10-03T08:15:53.366Z,85.82
2022-10-03T08:18:50.111Z,87.66
2022-10-03T08:21:31.926Z,87.27
2022-10-03T08:24:21.790Z,85.41
2022-10-03T08:27:10.128Z,83.71
2022-10-03T08:30:19.097Z,83.15
2022-10-03T08:33:35.964Z,84.76
2022-10-03T08:36:39.492Z,84.24
2022-10-03T08:39:24.859Z,83.19
2022-10-03T08:42:28.196Z,81.68
2022-10-03T08:45:29.618Z,81.09
2022-10-03T08:48:46.696Z,80.52
2022-10-03T08:51:53.569Z,80.20
2022-10-03T08:55:02.235Z,80.32
2022-10-03T08:58:03.051Z,80.75
2022-10-03T09:00:58.818Z,81.67
2022-10-03T09:04:03.998Z,80.71
2022-10-03T09:07:18.003Z,81.40
2022-10-03T09:10:24.201Z,82.36
2022-10-03T09:13:29.419Z,81.94
2022-10-03T09:16:28.305Z,81.34
2022-10-03T09:19:21.856Z,81.12
2022-10-03T09:22:34.912Z,81.66
2022-10-03T09:25:25.712Z,82.28
2022-10-03T09:28:44.876Z,81.07
2022-10-03T09:31:52.571Z,82.14
2022-10-03T09:34:55.262Z,82.57
2022-10-03T09:37:59.603Z,80.64
2022-10-03T09:41:12.390Z,81.11
2022-10-03T09:44:14.284Z,80.43
2022-10-03T09:47:33.300Z,81.70
2022-10-03T09:50:54.135Z,80.11
2022-10-03T09:54:04.008Z,80.54
2022-10-03T09:57:12.321Z,80.86
2022-10-03T10:00:23.234Z,80.67
2022-10-03T10:03:25.806Z,78.59
2022-10-03T10:06:12.333Z,76.67
2022-10-03T10:09:08.798Z,76.29
2022-10-03T10:12:04.528Z,75.89
2022-10-03T10:14:58.131Z,76.14
2022-10-03T10:17:55.945Z,76.61
2022-10-03T10:21:29.223Z,76.64
2022-10-03T10:24:17.838Z,76.00
2022-10-03T10:27:23.242Z,75.85
2022-10-03T10:30:10.843Z,74.09
2022-10-03T10:33:32.465Z,73.92
2022-10-03T10:36:44.713Z,74.15
2022-10-03T10:39:49.448Z,73.38
2022-10-03T10:42:58.355Z,74.89
2022-10-03T10:46:00.106Z,76.07
2022-10-03T10:49:05.290Z,76.16
2022-10-03T10:52:21.261Z,74.64
2022-10-03T10:55:22.250Z,75.35
2022-10-03T10:58:30.033Z,75.59
2022-10-03T11:01:47.294Z,76.43
2022-10-03T11:04:46.713Z,75.47
2022-10-03T11:08:15.997Z,74.76
2022-10-03T11:11:07.721Z,75.19
2022-10-03T11:14:09.372Z,75.28
2022-10-03T11:17:18.101Z,75.44
2022-10-03T11:20:34.770Z,74.55
2022-10-03T11:23:53.341Z,73.77
2022-10-03T11:26:59.556Z,73.96
2022-10-03T11:30:05.094Z,75.31
2022-10-03T11:33:09.639Z,77.21
2022-10-03T11:36:08.337Z,78.65
2022-10-03T11:38:48.406Z,78.05
2022-10-03T11:41:31.968Z,80.46
2022-10-03T11:44:17.709Z,81.68
2022-10-03T11:47:14.840Z,83.09
2022-10-03T11:50:13.975Z,84.93
2022-10-03T11:53:03.433Z,86.07
2022-10-03T11:55:41.283Z,87.12
2022-10-03T11:58:34.088Z,87.95
2022-10-03T12:01:38.196Z,88.56
2022-10-03T12:04:22.069Z,89.47
2022-10-03T12:07:19.886Z,90.04
2022-10-03T12:10:05.972Z,90.82
2022-10-03T12:12:43.586Z,91.63
2022-10-03T12:15:36.542Z,92.13
2022-10-03T12:18:18.082Z,91.76
2022-10-03T12:21:09.522Z,91.44
2022-10-03T12:24:25.261Z,91.53
2022-10-03T12:27:04.736Z,91.60
2022-10-03T12:29:41.143Z,91.14
2022-10-03T12:32:25.508Z,91.01
2022-10-03T12:35:09.159Z,90.94
2022-10-03T12:37:55.265Z,91.34
2022-10-03T12:40:35.010Z,91.05
2022-10-03T12:43:20.717Z,90.17
2022-10-03T12:45:59.124Z,89.08
2022-10-03T12:48:48.031Z,88.51
2022-10-03T12:51:31.971Z,85.09
2022-10-03T12:54:17.787Z,84.88
2022-10-03T12:56:59.402Z,82.52
2022-10-03T12:59:42.272Z,81.83
2022-10-03T13:02:32.815Z,80.70
2022-10-03T13:05:37.087Z,79.80
2022-10-03T13:08:26.428Z,76.54
2022-10-03T13:11:08.485Z,76.34
2022-10-03T13:14:01.610Z,76.26
2022-10-03T13:16:39.488Z,77.23
2022-10-03T13:19:17.695Z,76.54
2022-10-03T13:22:09.920Z,76.88
2022-10-03T13:24:49.743Z,76.30
2022-10-03T13:27:33.506Z,77.42
2022-10-03T13:30:15.389Z,76.52
2022-10-03T13:32:52.003Z,76.14
2022-10-03T13:35:49.401Z,77.15
2022-10-03T13:38:47.942Z,75.85
2022-10-03T13:41:29.467Z,76.03
2022-10-03T13:44:06.477Z,75.24
2022-10-03T13:46:48.706Z,74.36
2022-10-03T13:49:32.244Z,74.64
2022-10-03T13:52:16.511Z,74.68
2022-10-03T13:55:11.230Z,74.77
2022-10-03T13:57:52.730Z,74.60
2022-10-03T14:00:26.660Z,75.36
2022-10-03T14:03:13.846Z,74.40
2022-10-03T14:06:10.883Z,74.11
2022-10-03T14:09:01.078Z,73.72
2022-10-03T14:11:44.443Z,73.97
2022-10-03T14:14:35.865Z,74.20
2022-10-03T14:17:13.071Z,74.09
2022-10-03T14:19:59.868Z,74.33
2022-10-03T14:22:43.980Z,74.33
2022-10-03T14:25:24.246Z,74.80
2022-10-03T14:28:02.258Z,75.00
2022-10-03T14:31:06.134Z,74.67
2022-10-03T14:33:47.598Z,74.83
2022-10-03T14:36:37.472Z,74.23
2022-10-03T14:39:23.892Z,74.34
2022-10-03T14:42:23.421Z,74.51
2022-10-03T14:44:59.629Z,74.03
2022-10-03T14:47:37.433Z,74.93
2022-10-03T14:50:18.516Z,74.54
2022-10-03T14:53:02.247Z,74.67
2022-10-03T14:55:44.655Z,74.40
2022-10-03T14:58:22.956Z,74.15
2022-10-03T15:01:02.847Z,73.94
2022-10-03T15:03:39.845Z,73.64
2022-10-03T15:06:35.875Z,73.81
2022-10-03T15:09:12.901Z,74.21
2022-10-03T15:11:52.500Z,74.72
2022-10-03T15:14:27.504Z,75.03
2022-10-03T15:17:02.619Z,75.24
2022-10-03T15:19:44.447Z,74.87
2022-10-03T15:22:29.306Z,75.24
2022-10-03T15:25:07.130Z,75.41
2022-10-03T15:27:43.826Z,75.32
2022-10-03T15:30:25.857Z,75.32
2022-10-03T15:33:11.565Z,75.59
2022-10-03T15:35:48.124Z,75.54
2022-10-03T15:38:27.550Z,75.43
2022-10-03T15:41:12.549Z,75.48
2022-10-03T15:43:53.371Z,75.18
2022-10-03T15:46:34.830Z,75.51
2022-10-03T15:49:26.226Z,75.72
2022-10-03T15:52:01.930Z,76.12
2022-10-03T15:54:38.867Z,76.18
2022-10-03T15:57:22.757Z,76.61
2022-10-03T16:00:03.051Z,76.95
2022-10-03T16:02:49.996Z,76.88
2022-10-03T16:05:28.857Z,77.06
2022-10-03T16:08:06.907Z,77.44
2022-10-03T16:10:42.645Z,77.70
2022-10-03T16:13:32.080Z,77.98
2022-10-03T16:16:34.513Z,78.38
2022-10-03T16:19:25.951Z,78.96
2022-10-03T16:22:05.825Z,79.18
2022-10-03T16:24:44.545Z,79.61
2022-10-03T16:27:21.438Z,80.09
2022-10-03T16:30:04.259Z,80.38
2022-10-03T16:32:45.323Z,80.74
2022-10-03T16:35:31.423Z,81.13
2022-10-03T16:38:08.258Z,81.47
2022-10-03T16:40:40.550Z,81.70
2022-10-03T16:43:19.458Z,81.80
2022-10-03T16:45:52.288Z,81.98
2022-10-03T16:48:46.947Z,82.07
2022-10-03T16:51:22.687Z,82.18
2022-10-03T16:53:57.038Z,82.43
2022-10-03T16:56:38.184Z,82.72
2022-10-03T16:59:19.119Z,82.93
2022-10-03T17:01:55.591Z,83.10
2022-10-03T17:04:33.905Z,83.33
2022-10-03T17:07:09.497Z,83.84
2022-10-03T17:09:46.486Z,84.11
2022-10-03T17:14:01.252Z,84.84
2022-10-03T17:16:45.172Z,85.16
2022-10-03T17:19:30.535Z,85.29
2022-10-03T17:22:13.029Z,85.23
2022-10-03T17:24:50.225Z,85.26
2022-10-03T17:27:29.994Z,85.37
2022-10-03T17:30:06.244Z,85.58
2022-10-03T17:32:43.293Z,85.61
2022-10-03T17:35:21.620Z,85.76
2022-10-03T17:41:22.481Z,85.82
2022-10-03T17:44:17.384Z,86.04
2022-10-03T17:46:59.981Z,86.40
2022-10-03T17:49:46.119Z,86.71
2022-10-03T17:52:21.453Z,86.91
2022-10-03T17:54:57.113Z,87.40
2022-10-03T17:57:37.007Z,87.63
2022-10-03T18:00:18.391Z,87.97
2022-10-03T18:02:58.810Z,88.22
2022-10-03T18:05:35.501Z,88.37
2022-10-03T18:08:14.475Z,88.69
2022-10-03T18:10:56.020Z,88.76
2022-10-03T18:13:37.188Z,89.00
2022-10-03T18:16:24.031Z,89.40
2022-10-03T18:19:23.486Z,89.64
2022-10-03T18:22:04.951Z,89.85
2022-10-03T18:24:55.183Z,90.01
2022-10-03T18:28:05.260Z,90.18
2022-10-03T18:30:46.374Z,90.39
2022-10-03T18:33:21.601Z,90.58
2022-10-03T18:35:54.647Z,90.75
2022-10-03T18:38:28.939Z,90.65
2022-10-03T18:41:02.883Z,90.93
2022-10-03T18:43:45.232Z,90.94
2022-10-03T18:46:22.043Z,91.24
2022-10-03T18:49:32.989Z,91.57
2022-10-03T18:52:00.418Z,91.49
2022-10-03T18:54:45.137Z,91.66
2022-10-03T18:57:24.634Z,91.85
2022-10-03T19:00:02.867Z,92.16
2022-10-03T19:02:39.476Z,92.28
2022-10-03T19:05:19.187Z,92.29
2022-10-03T19:07:58.117Z,92.34
2022-10-03T19:10:38.530Z,92.44
2022-10-03T19:13:19.553Z,92.53
2022-10-03T19:16:13.157Z,92.90
2022-10-03T19:18:50.721Z,92.90
2022-10-03T19:21:23.442Z,93.22
2022-10-03T19:24:05.549Z,93.30
2022-10-03T19:26:40.134Z,93.43
2022-10-03T19:29:14.654Z,93.33
2022-10-03T19:31:59.006Z,93.21
2022-10-03T19:34:37.136Z,93.20
2022-10-03T19:37:17.190Z,93.25
2022-10-03T19:39:49.433Z,93.21
2022-10-03T19:42:40.342Z,93.40
2022-10-03T19:45:15.258Z,93.49
2022-10-03T19:47:56.581Z,93.61
2022-10-03T19:50:32.963Z,93.81
2022-10-03T19:53:16.130Z,93.86
2022-10-03T19:55:51.281Z,93.71
2022-10-03T19:58:25.217Z,93.76
2022-10-03T20:00:59.985Z,93.72
2022-10-03T20:03:44.138Z,93.67
2022-10-03T20:06:24.125Z,93.58
2022-10-03T20:09:01.397Z,93.65
2022-10-03T20:11:45.771Z,93.68
2022-10-03T20:14:23.738Z,93.76
2022-10-03T20:17:01.121Z,93.69
2022-10-03T20:19:38.912Z,93.93
2022-10-03T20:22:15.544Z,93.89
2022-10-03T20:24:48.191Z,93.97
2022-10-03T20:27:32.879Z,94.01
2022-10-03T20:30:31.563Z,93.91
2022-10-03T20:33:05.370Z,94.11
2022-10-03T20:35:52.432Z,94.24
2022-10-03T20:38:33.653Z,94.42
2022-10-03T20:41:10.673Z,94.81
2022-10-03T20:43:47.687Z,94.78
2022-10-03T20:46:25.495Z,94.83
2022-10-03T20:49:21.828Z,95.20
2022-10-03T20:52:03.491Z,95.30
2022-10-03T20:54:48.526Z,95.41
2022-10-03T20:57:22.986Z,95.42
2022-10-03T21:00:04.505Z,95.57
2022-10-03T21:02:41.863Z,95.59
2022-10-03T21:05:23.873Z,95.80
2022-10-03T21:07:59.676Z,95.91
2022-10-03T21:10:34.887Z,95.95
2022-10-03T21:13:14.434Z,96.07
2022-10-03T21:15:50.997Z,96.30
2022-10-03T21:18:26.683Z,96.48
2022-10-03T21:21:08.982Z,96.70
2022-10-03T21:23:45.514Z,96.97
2022-10-03T21:26:25.178Z,97.18
2022-10-03T21:29:17.344Z,97.38
2022-10-03T21:31:59.188Z,97.35
2022-10-03T21:34:41.702Z,97.54
2022-10-03T21:37:23.622Z,97.65
2022-10-03T21:40:07.577Z,98.00
2022-10-03T21:42:49.176Z,98.50
2022-10-03T21:45:32.669Z,98.48
2022-10-03T21:48:13.329Z,98.48
2022-10-03T21:50:53.716Z,98.50
2022-10-03T21:53:32.134Z,98.59
2022-10-03T21:56:23.663Z,98.54
2022-10-03T21:59:19.065Z,98.63
2022-10-03T22:01:59.839Z,98.67
2022-10-03T22:04:41.028Z,98.58
2022-10-03T22:07:17.140Z,98.57
2022-10-03T22:09:56.142Z,98.48
2022-10-03T22:12:31.303Z,98.80
2022-10-03T22:15:10.674Z,99.08
2022-10-03T22:17:49.623Z,99.16
2022-10-03T22:20:23.893Z,99.30
2022-10-03T22:23:05.968Z,99.51
2022-10-03T22:25:52.817Z,99.47
2022-10-03T22:28:35.395Z,99.44
2022-10-03T22:31:14.699Z,99.63
2022-10-03T22:34:00.474Z,99.59
2022-10-03T22:36:34.488Z,99.59
2022-10-03T22:39:11.576Z,99.69
2022-10-03T22:41:46.815Z,99.67
2022-10-03T22:44:23.067Z,99.85
2022-10-03T22:46:57.921Z,99.81
2022-10-03T22:49:35.216Z,99.85
2022-10-03T22:52:10.176Z,99.92
2022-10-03T22:54:47.303Z,100.00
2022-10-03T22:57:20.252Z,99.98
2022-10-03T22:59:56.107Z,100.00
2022-10-03T23:02:34.979Z,100.00
2022-10-03T23:05:10.814Z,100.00
2022-10-03T23:07:57.655Z,100.00
2022-10-03T23:10:44.201Z,99.93
2022-10-03T23:13:30.517Z,99.85
2022-10-03T23:16:14.015Z,99.75
2022-10-03T23:19:04.769Z,99.87
2022-10-03T23:21:44.718Z,99.77
2022-10-03T23:24:24.289Z,99.85
2022-10-03T23:27:31.644Z,99.78
2022-10-03T23:30:34.305Z,99.62
2022-10-03T23:33:15.524Z,99.70
2022-10-03T23:35:49.651Z,99.65
2022-10-03T23:39:07.576Z,99.58
2022-10-03T23:41:57.165Z,99.88
2022-10-03T23:44:35.664Z,100.00
2022-10-03T23:47:13.351Z,99.96
2022-10-03T23:49:47.619Z,99.91
2022-10-03T23:52:25.072Z,99.88
2022-10-03T23:55:02.387Z,99.95
2022-10-03T23:57:38.699Z,99.99
